Terminal Aerodrome Forecast
Issued by NWS Sterling, VA

Home | Current Version | Previous Version | Text Only | Print | Product List | Glossary On
Versions: 1 2 3 4 5 6 7 8 9 10 11 12
000
FTUS41 KLWX 260534
TAFCHO
TAF
KCHO 260534Z 2606/2706 VRB03KT P6SM SCT100 BKN200
     FM261500 19008G16KT P6SM SCT050 BKN100
     FM262300 19005KT P6SM SCT050 BKN100=

USA.gov is the U.S. government's official web portal to all federal, state and local government web resources and services.